Terminal Aerodrome Forecast
Issued by NWS Anchorage, AK

Home | Current Version | Previous Version | Text Only | Print | Product List | Glossary On
Versions: 1 2 3 4 5 6 7 8 9 10 11 12 13 14 15 16 17 18 19 20 21 22 23 24 25 26 27 28 29 30 31 32 33
000
FTAK31 PANC 231143
TAFANC
TAF
PANC 231143Z 2312/2418 12007KT P6SM VCSH SCT070 BKN100
      TEMPO 2312/2316 BKN070
     FM232000 27006KT P6SM VCSH SCT050 BKN070
     FM240300 18007KT P6SM SCT070 BKN100
     FM241400 18005KT P6SM BKN070=

USA.gov is the U.S. government's official web portal to all federal, state and local government web resources and services.